createdAt,value
2018-07-13T00:00:37.191Z,4.03
2018-07-13T00:03:06.026Z,4.90
2018-07-13T00:05:42.848Z,5.43
2018-07-13T00:08:11.627Z,6.13
2018-07-13T00:10:42.796Z,6.00
2018-07-13T00:13:13.078Z,3.30
2018-07-13T00:15:56.665Z,5.80
2018-07-13T00:18:26.781Z,4.20
2018-07-13T00:20:55.711Z,5.40
2018-07-13T00:23:24.685Z,6.60
2018-07-13T00:25:54.163Z,3.90
2018-07-13T00:28:22.892Z,6.50
2018-07-13T00:30:55.413Z,3.83
2018-07-13T00:33:24.428Z,6.40
2018-07-13T00:35:57.217Z,4.13
2018-07-13T00:38:25.995Z,6.30
2018-07-13T00:40:59.675Z,5.33
2018-07-13T00:43:28.489Z,7.33
2018-07-13T00:46:05.467Z,9.83
2018-07-13T00:48:34.252Z,4.07
2018-07-13T00:51:06.723Z,7.93
2018-07-13T00:53:35.508Z,7.53
2018-07-13T00:56:11.274Z,7.43
2018-07-13T00:58:40.328Z,5.10
2018-07-13T01:01:12.963Z,4.33
2018-07-13T01:03:41.770Z,5.80
2018-07-13T01:06:14.971Z,6.83
2018-07-13T01:08:43.737Z,7.63
2018-07-13T01:11:20.444Z,6.87
2018-07-13T01:13:49.559Z,5.60
2018-07-13T01:16:18.805Z,5.80
2018-07-13T01:18:47.581Z,10.87
2018-07-13T01:21:23.493Z,4.90
2018-07-13T01:23:52.262Z,4.40
2018-07-13T01:26:24.302Z,6.43
2018-07-13T01:28:53.464Z,5.67
2018-07-13T01:31:31.306Z,5.57
2018-07-13T01:34:00.173Z,11.63
2018-07-13T01:36:29.297Z,7.07
2018-07-13T01:38:58.082Z,6.17
2018-07-13T01:41:34.191Z,4.63
2018-07-13T01:44:03.257Z,6.47
2018-07-13T01:46:33.710Z,6.93
2018-07-13T01:49:02.576Z,5.67
2018-07-13T01:51:37.640Z,5.13
2018-07-13T01:54:06.750Z,7.83
2018-07-13T01:56:43.555Z,4.57
2018-07-13T01:59:12.686Z,5.03
2018-07-13T02:01:42.541Z,6.07
2018-07-13T02:04:11.340Z,11.50
2018-07-13T02:06:48.170Z,4.63
2018-07-13T02:09:16.954Z,6.20
2018-07-13T02:11:46.785Z,5.13
2018-07-13T02:14:15.837Z,8.37
2018-07-13T02:16:49.842Z,4.67
2018-07-13T02:19:18.562Z,7.40
2018-07-13T02:21:54.781Z,5.60
2018-07-13T02:24:23.562Z,5.97
2018-07-13T02:26:56.016Z,6.40
2018-07-13T02:29:25.019Z,6.53
2018-07-13T02:32:01.543Z,6.77
2018-07-13T02:34:32.741Z,6.00
2018-07-13T02:37:01.741Z,9.00
2018-07-13T02:39:30.682Z,8.77
2018-07-13T02:42:04.095Z,9.87
2018-07-13T02:44:33.019Z,8.17
2018-07-13T02:47:09.272Z,11.40
2018-07-13T02:49:38.530Z,10.67
2018-07-13T02:52:14.499Z,10.23
2018-07-13T02:54:44.179Z,8.70
2018-07-13T02:57:13.330Z,9.20
2018-07-13T02:59:42.073Z,15.87
2018-07-13T03:02:18.994Z,11.17
2018-07-13T03:04:48.192Z,11.30
2018-07-13T03:07:20.278Z,14.00
2018-07-13T03:09:49.099Z,21.87
2018-07-13T03:12:20.860Z,25.70
2018-07-13T03:14:49.605Z,20.57
2018-07-13T03:17:26.371Z,20.63
2018-07-13T03:19:55.152Z,24.67
2018-07-13T03:22:25.416Z,24.17
2018-07-13T03:24:54.217Z,20.80
2018-07-13T03:27:30.521Z,23.83
2018-07-13T03:29:59.351Z,22.03
2018-07-13T03:32:31.602Z,19.60
2018-07-13T03:35:00.720Z,21.53
2018-07-13T03:37:33.223Z,20.40
2018-07-13T03:40:01.968Z,22.57
2018-07-13T03:42:35.990Z,22.87
2018-07-13T03:45:05.134Z,20.60
2018-07-13T03:47:41.176Z,16.83
2018-07-13T03:50:10.150Z,19.10
2018-07-13T03:52:40.961Z,18.80
2018-07-13T03:55:09.886Z,25.87
2018-07-13T03:57:44.200Z,21.03
2018-07-13T04:00:13.149Z,15.87
2018-07-13T04:02:49.532Z,19.00
2018-07-13T04:05:18.400Z,13.93
2018-07-13T04:10:23.707Z,18.57
2018-07-13T04:12:52.742Z,14.03
2018-07-13T04:15:21.533Z,14.13
2018-07-13T04:17:57.823Z,16.23
2018-07-13T04:20:27.630Z,15.27
2018-07-13T04:23:04.205Z,15.23
2018-07-13T04:25:33.829Z,16.20
2018-07-13T04:28:02.790Z,13.63
2018-07-13T04:30:31.798Z,17.90
2018-07-13T04:33:02.825Z,14.23
2018-07-13T04:35:31.601Z,15.57
2018-07-13T04:38:05.404Z,14.37
2018-07-13T04:40:34.655Z,16.70
2018-07-13T04:43:08.147Z,21.10
2018-07-13T04:45:37.385Z,18.70
2018-07-13T04:48:12.247Z,12.93
2018-07-13T04:50:41.194Z,19.37
2018-07-13T04:53:17.719Z,11.90
2018-07-13T04:55:47.189Z,13.03
2018-07-13T04:58:17.260Z,13.70
2018-07-13T05:00:46.154Z,14.77
2018-07-13T05:03:22.733Z,14.97
2018-07-13T05:05:52.032Z,13.80
2018-07-13T05:08:24.331Z,12.57
2018-07-13T05:10:53.939Z,15.23
2018-07-13T05:13:25.276Z,12.00
2018-07-13T05:15:54.195Z,14.17
2018-07-13T05:18:30.174Z,14.43
2018-07-13T05:20:59.457Z,13.33
2018-07-13T05:23:29.717Z,15.23
2018-07-13T05:25:58.996Z,12.33
2018-07-13T05:28:32.709Z,14.63
2018-07-13T05:31:01.551Z,12.27
2018-07-13T05:33:39.308Z,12.83
2018-07-13T05:36:08.735Z,13.07
2018-07-13T05:38:38.206Z,13.83
2018-07-13T05:41:07.269Z,11.50
2018-07-13T05:43:43.668Z,14.00
2018-07-13T05:46:13.730Z,11.57
2018-07-13T05:48:44.937Z,11.37
2018-07-13T05:58:03.181Z,13.37
2018-07-13T06:03:09.589Z,11.50
2018-07-13T06:05:38.782Z,11.73
2018-07-13T06:08:08.026Z,13.97
2018-07-13T06:10:37.283Z,11.97
2018-07-13T06:13:06.355Z,16.37
2018-07-13T06:15:35.366Z,12.03
2018-07-13T06:18:04.513Z,17.03
2018-07-13T06:20:33.479Z,17.00
2018-07-13T06:23:05.708Z,14.23
2018-07-13T06:25:35.712Z,14.27
2018-07-13T06:28:06.471Z,17.67
2018-07-13T06:30:35.460Z,16.47
2018-07-13T06:33:10.687Z,16.27
2018-07-13T06:35:39.661Z,14.87
2018-07-13T06:38:16.961Z,13.00
2018-07-13T06:40:46.092Z,14.97
2018-07-13T06:43:15.326Z,17.97
2018-07-13T06:45:45.233Z,18.53
2018-07-13T06:48:18.741Z,16.10
2018-07-13T06:50:47.694Z,13.23
2018-07-13T06:53:24.014Z,11.47
2018-07-13T06:55:53.030Z,18.00
2018-07-13T06:58:33.611Z,18.13
2018-07-13T07:01:04.483Z,16.17
2018-07-13T07:03:34.645Z,19.67
2018-07-13T07:06:08.946Z,15.83
2018-07-13T07:08:40.646Z,13.53
2018-07-13T07:11:09.588Z,14.90
2018-07-13T07:13:41.866Z,17.47
2018-07-13T07:16:12.501Z,16.27
2018-07-13T07:18:41.468Z,19.70
2018-07-13T07:21:10.691Z,15.53
2018-07-13T07:23:40.660Z,16.07
2018-07-13T07:26:12.508Z,16.53
2018-07-13T07:28:42.326Z,12.73
2018-07-13T07:31:11.759Z,19.67
2018-07-13T07:33:40.626Z,16.43
2018-07-13T07:36:10.145Z,13.93
2018-07-13T07:38:42.905Z,14.43
2018-07-13T07:41:11.830Z,12.77
2018-07-13T07:43:47.676Z,16.53
2018-07-13T07:46:16.696Z,14.63
2018-07-13T07:48:49.209Z,18.10
2018-07-13T07:51:28.393Z,13.30
2018-07-13T07:53:57.180Z,21.90
2018-07-13T07:56:26.085Z,14.67
2018-07-13T07:58:55.239Z,15.03
2018-07-13T08:01:24.160Z,10.40
2018-07-13T08:03:56.403Z,17.93
2018-07-13T08:06:25.757Z,15.67
2018-07-13T08:09:01.903Z,14.77
2018-07-13T08:11:30.865Z,13.50
2018-07-13T08:14:03.317Z,11.93
2018-07-13T08:16:32.254Z,10.33
2018-07-13T08:19:06.959Z,17.20
2018-07-13T08:21:41.055Z,14.10
2018-07-13T08:24:11.274Z,16.67
2018-07-13T08:26:40.741Z,12.90
2018-07-13T08:29:15.257Z,17.03
2018-07-13T08:31:44.738Z,15.27
2018-07-13T08:34:14.504Z,12.40
2018-07-13T08:36:45.395Z,11.90
2018-07-13T08:39:17.420Z,13.03
2018-07-13T08:41:46.604Z,14.40
2018-07-13T08:44:20.688Z,12.30
2018-07-13T08:46:49.543Z,13.53
2018-07-13T08:49:25.492Z,12.43
2018-07-13T08:51:57.274Z,16.50
2018-07-13T08:54:26.719Z,15.87
2018-07-13T08:56:56.077Z,11.43
2018-07-13T08:59:28.521Z,10.47
2018-07-13T09:02:00.474Z,13.13
2018-07-13T09:04:31.515Z,13.00
2018-07-13T09:07:00.709Z,14.40
2018-07-13T09:09:33.208Z,12.77
2018-07-13T09:12:02.612Z,7.80
2018-07-13T09:14:33.535Z,9.80
2018-07-13T09:17:02.448Z,11.63
2018-07-13T09:19:38.706Z,9.10
2018-07-13T09:22:07.547Z,9.03
2018-07-13T09:24:40.613Z,7.40
2018-07-13T09:27:10.162Z,9.07
2018-07-13T09:29:41.859Z,8.47
2018-07-13T09:32:10.798Z,7.80
2018-07-13T09:34:50.150Z,7.70
2018-07-13T09:37:19.693Z,8.10
2018-07-13T09:39:48.587Z,9.77
2018-07-13T09:42:17.576Z,6.97
2018-07-13T09:44:50.445Z,9.77
2018-07-13T09:47:20.274Z,6.60
2018-07-13T09:49:53.291Z,5.70
2018-07-13T09:52:22.685Z,2.40
2018-07-13T09:54:59.198Z,5.57
2018-07-13T09:57:28.207Z,5.43
2018-07-13T09:59:59.707Z,7.83
2018-07-13T10:02:29.954Z,8.63
2018-07-13T10:05:05.166Z,5.30
2018-07-13T10:07:34.040Z,3.73
2018-07-13T10:10:06.324Z,5.73
2018-07-13T10:12:35.566Z,8.37
2018-07-13T10:15:11.589Z,10.20
2018-07-13T10:17:41.509Z,6.33
2018-07-13T10:20:14.193Z,3.97
2018-07-13T10:22:44.290Z,5.30
2018-07-13T10:25:14.202Z,3.87
2018-07-13T10:27:43.194Z,4.40
2018-07-13T10:30:19.687Z,3.80
2018-07-13T10:32:48.632Z,3.77
2018-07-13T10:35:19.338Z,5.20
2018-07-13T10:37:51.626Z,5.10
2018-07-13T10:40:21.307Z,2.60
2018-07-13T10:42:56.581Z,6.87
2018-07-13T10:45:26.259Z,3.73
2018-07-13T10:47:55.160Z,4.13
2018-07-13T10:50:26.006Z,2.83
2018-07-13T10:52:56.129Z,4.77
2018-07-13T10:55:28.244Z,2.07
2018-07-13T10:57:57.973Z,3.70
2018-07-13T11:00:31.214Z,2.00
2018-07-13T11:03:00.285Z,3.27
2018-07-13T11:05:33.562Z,5.20
2018-07-13T11:08:03.341Z,2.60
2018-07-13T11:10:41.082Z,2.77
2018-07-13T11:13:12.222Z,3.20
2018-07-13T11:15:41.713Z,2.73
2018-07-13T11:18:10.615Z,3.07
2018-07-13T11:20:41.777Z,3.10
2018-07-13T11:23:10.648Z,1.30
2018-07-13T11:25:47.726Z,2.93
2018-07-13T11:28:17.093Z,3.30
2018-07-13T11:30:49.173Z,2.57
2018-07-13T11:33:18.764Z,1.40
2018-07-13T11:35:49.491Z,2.80
2018-07-13T11:38:19.974Z,2.83
2018-07-13T11:40:56.966Z,1.60
2018-07-13T11:43:25.987Z,5.10
2018-07-13T11:45:56.178Z,4.67
2018-07-13T11:48:25.650Z,1.40
2018-07-13T11:50:59.632Z,2.13
2018-07-13T11:53:29.215Z,3.13
2018-07-13T11:56:01.406Z,3.47
2018-07-13T11:58:32.102Z,2.33
2018-07-13T12:01:04.688Z,1.87
2018-07-13T12:03:34.641Z,4.70
2018-07-13T12:06:07.373Z,7.30
2018-07-13T12:08:36.955Z,4.13
2018-07-13T12:11:13.071Z,4.13
2018-07-13T12:13:42.593Z,2.47
2018-07-13T12:16:13.299Z,5.03
2018-07-13T12:18:42.226Z,3.53
2018-07-13T12:21:21.084Z,4.63
2018-07-13T12:23:50.577Z,2.07
2018-07-13T12:26:20.007Z,5.50
2018-07-13T12:28:50.141Z,3.33
2018-07-13T12:31:24.236Z,6.47
2018-07-13T12:33:54.376Z,2.80
2018-07-13T12:36:24.292Z,3.37
2018-07-13T12:38:54.598Z,3.60
2018-07-13T12:41:29.750Z,4.50
2018-07-13T12:44:07.472Z,1.90
2018-07-13T12:46:40.401Z,2.77
2018-07-13T12:49:14.394Z,2.37
2018-07-13T12:51:51.271Z,1.60
2018-07-13T12:54:21.264Z,1.77
2018-07-13T12:56:50.641Z,3.33
2018-07-13T12:59:19.789Z,2.70
2018-07-13T13:01:49.639Z,1.73
2018-07-13T13:04:19.300Z,1.60
2018-07-13T13:06:49.036Z,2.00
2018-07-13T13:09:18.136Z,1.60
2018-07-13T13:11:47.313Z,2.60
2018-07-13T13:14:21.215Z,2.07
2018-07-13T13:16:51.649Z,1.50
2018-07-13T13:19:21.176Z,1.50
2018-07-13T13:21:50.388Z,2.43
2018-07-13T13:24:24.663Z,6.13
2018-07-13T13:26:58.213Z,4.23
2018-07-13T13:29:28.086Z,3.57
2018-07-13T13:31:58.751Z,3.27
2018-07-13T13:34:28.181Z,4.73
2018-07-13T13:36:59.943Z,4.50
2018-07-13T13:39:33.287Z,7.00
2018-07-13T13:42:02.531Z,3.63
2018-07-13T13:44:32.779Z,1.67
2018-07-13T13:47:02.150Z,2.13
2018-07-13T13:49:31.850Z,2.60
2018-07-13T13:52:09.211Z,2.47
2018-07-13T13:54:39.001Z,2.80
2018-07-13T13:57:09.055Z,2.70
2018-07-13T13:59:38.443Z,1.20
2018-07-13T14:02:15.100Z,2.03
2018-07-13T14:04:44.196Z,1.97
2018-07-13T14:07:18.332Z,2.20
2018-07-13T14:09:49.809Z,3.33
2018-07-13T14:12:21.993Z,1.60
2018-07-13T14:14:52.797Z,3.20
2018-07-13T14:17:21.745Z,2.90
2018-07-13T14:19:51.098Z,1.27
2018-07-13T14:22:21.206Z,1.27
2018-07-13T14:24:52.641Z,3.40
2018-07-13T14:27:31.426Z,1.30
2018-07-13T14:30:03.259Z,3.20
2018-07-13T14:32:33.342Z,2.07
2018-07-13T14:36:06.289Z,2.23
2018-07-13T14:38:36.520Z,2.83
2018-07-13T14:41:06.246Z,3.47
2018-07-13T14:43:35.392Z,1.47
2018-07-13T14:46:05.089Z,1.20
2018-07-13T14:48:35.321Z,1.50
2018-07-13T14:51:05.631Z,1.40
2018-07-13T14:53:36.705Z,1.63
2018-07-13T14:56:07.712Z,0.80
2018-07-13T14:58:41.728Z,4.43
2018-07-13T15:01:14.112Z,2.03
2018-07-13T15:03:50.225Z,1.90
2018-07-13T15:06:20.777Z,2.80
2018-07-13T15:08:49.691Z,2.10
2018-07-13T15:11:19.250Z,1.27
2018-07-13T15:13:52.363Z,1.20
2018-07-13T15:16:21.195Z,2.27
2018-07-13T15:18:50.089Z,3.13
2018-07-13T15:21:21.405Z,1.43
2018-07-13T15:23:53.253Z,8.90
2018-07-13T15:26:22.727Z,1.33
2018-07-13T15:28:59.132Z,1.50
2018-07-13T15:31:28.168Z,1.93
2018-07-13T15:33:59.791Z,0.90
2018-07-13T15:36:28.760Z,3.73
2018-07-13T15:39:02.715Z,2.40
2018-07-13T15:41:31.710Z,2.13
2018-07-13T15:44:10.629Z,3.90
2018-07-13T15:46:40.770Z,2.27
2018-07-13T15:49:10.285Z,1.00
2018-07-13T15:51:41.219Z,2.10
2018-07-13T15:54:13.069Z,1.37
2018-07-13T15:56:41.991Z,6.10
2018-07-13T15:59:16.015Z,13.63
2018-07-13T16:01:45.179Z,3.80
2018-07-13T16:04:15.251Z,21.53
2018-07-13T16:06:44.435Z,3.10
2018-07-13T16:09:19.182Z,2.20
2018-07-13T16:11:48.069Z,3.10
2018-07-13T16:14:25.606Z,1.20
2018-07-13T16:16:54.469Z,4.77
2018-07-13T16:19:24.553Z,2.20
2018-07-13T16:21:53.802Z,2.63
2018-07-13T16:24:29.392Z,12.93
2018-07-13T16:26:58.246Z,4.70
2018-07-13T16:29:32.177Z,30.53
2018-07-13T16:32:14.665Z,27.70
2018-07-13T16:34:44.719Z,11.93
2018-07-13T16:37:15.293Z,6.77
2018-07-13T16:39:44.191Z,2.87
2018-07-13T16:42:13.165Z,2.60
2018-07-13T16:44:43.458Z,1.93
2018-07-13T16:47:15.347Z,2.10
2018-07-13T16:49:46.088Z,4.27
2018-07-13T16:52:16.440Z,2.13
2018-07-13T16:54:46.711Z,1.57
2018-07-13T16:57:15.745Z,1.27
2018-07-13T16:59:48.307Z,2.17
2018-07-13T17:02:18.526Z,1.53
2018-07-13T17:04:49.560Z,1.57
2018-07-13T17:07:18.748Z,3.27
2018-07-13T17:09:51.740Z,4.20
2018-07-13T17:12:26.027Z,3.17
2018-07-13T17:14:55.108Z,3.70
2018-07-13T17:17:24.184Z,1.70
2018-07-13T17:19:57.077Z,3.83
2018-07-13T17:22:26.268Z,1.50
2018-07-13T17:25:02.880Z,2.27
2018-07-13T17:27:31.701Z,4.80
2018-07-13T17:30:04.467Z,2.20
2018-07-13T17:32:33.887Z,1.23
2018-07-13T17:35:06.861Z,1.53
2018-07-13T17:37:36.574Z,1.93
2018-07-13T17:40:09.871Z,1.87
2018-07-13T17:42:39.037Z,1.73
2018-07-13T17:45:15.297Z,2.33
2018-07-13T17:47:44.437Z,5.90
2018-07-13T17:50:16.706Z,2.07
2018-07-13T17:52:46.192Z,2.30
2018-07-13T17:55:18.783Z,1.60
2018-07-13T17:57:47.993Z,2.10
2018-07-13T18:00:21.365Z,3.57
2018-07-13T18:02:52.678Z,4.47
2018-07-13T18:05:26.285Z,2.00
2018-07-13T18:07:55.848Z,3.00
2018-07-13T18:10:25.673Z,1.93
2018-07-13T18:12:54.969Z,3.57
2018-07-13T18:15:31.606Z,6.40
2018-07-13T18:18:00.997Z,1.83
2018-07-13T18:20:30.244Z,3.80
2018-07-13T18:22:59.371Z,1.83
2018-07-13T18:25:36.207Z,6.07
2018-07-13T18:28:06.230Z,6.60
2018-07-13T18:30:35.194Z,1.63
2018-07-13T18:33:04.740Z,4.40
2018-07-13T18:35:37.176Z,3.80
2018-07-13T18:38:06.342Z,2.03
2018-07-13T18:40:40.130Z,2.17
2018-07-13T18:43:09.220Z,1.40
2018-07-13T18:45:46.090Z,2.27
2018-07-13T18:48:15.222Z,2.53
2018-07-13T18:50:46.421Z,3.13
2018-07-13T18:53:17.955Z,4.90
2018-07-13T18:55:50.732Z,3.50
2018-07-13T18:58:20.624Z,2.33
2018-07-13T19:00:53.819Z,3.30
2018-07-13T19:03:25.077Z,1.93
2018-07-13T19:05:57.147Z,4.83
2018-07-13T19:08:26.605Z,2.30
2018-07-13T19:10:59.053Z,1.83
2018-07-13T19:13:28.185Z,5.10
2018-07-13T19:16:00.356Z,1.90
2018-07-13T19:18:30.484Z,2.07
2018-07-13T19:21:04.827Z,2.23
2018-07-13T19:23:34.962Z,8.83
2018-07-13T19:26:08.176Z,1.83
2018-07-13T19:28:38.111Z,2.20
2018-07-13T19:31:12.374Z,4.30
2018-07-13T19:33:43.256Z,2.73
2018-07-13T19:36:13.725Z,2.13
2018-07-13T19:38:43.406Z,2.40
2018-07-13T19:41:17.827Z,4.90
2018-07-13T19:43:48.126Z,1.43
2018-07-13T19:46:19.663Z,3.10
2018-07-13T19:48:49.924Z,3.73
2018-07-13T19:51:23.259Z,1.70
2018-07-13T19:53:54.601Z,1.80
2018-07-13T19:56:24.020Z,1.83
2018-07-13T19:58:53.164Z,1.80
2018-07-13T20:01:31.166Z,1.90
2018-07-13T20:04:14.469Z,1.77
2018-07-13T20:06:44.456Z,6.50
2018-07-13T20:09:15.775Z,2.50
2018-07-13T20:11:46.524Z,1.70
2018-07-13T20:14:16.300Z,4.30
2018-07-13T20:16:47.685Z,2.23
2018-07-13T20:19:17.976Z,2.47
2018-07-13T20:21:49.576Z,2.90
2018-07-13T20:27:23.629Z,3.00
2018-07-13T20:29:53.678Z,2.00
2018-07-13T20:32:24.229Z,1.87
2018-07-13T20:34:54.663Z,4.30
2018-07-13T20:37:23.679Z,4.73
2018-07-13T20:39:53.245Z,2.17
2018-07-13T20:42:25.698Z,2.07
2018-07-13T20:44:56.881Z,2.97
2018-07-13T20:47:26.172Z,2.03
2018-07-13T20:49:57.624Z,3.83
2018-07-13T20:52:27.366Z,4.73
2018-07-13T20:55:05.602Z,3.37
2018-07-13T20:57:34.577Z,2.00
2018-07-13T21:00:04.216Z,3.33
2018-07-13T21:02:36.328Z,2.80
2018-07-13T21:05:05.714Z,2.73
2018-07-13T21:07:34.936Z,2.27
2018-07-13T21:10:04.183Z,2.47
2018-07-13T21:12:36.316Z,3.57
2018-07-13T21:15:08.312Z,3.93
2018-07-13T21:17:41.685Z,4.27
2018-07-13T21:20:14.017Z,2.80
2018-07-13T21:22:44.402Z,4.23
2018-07-13T21:25:14.460Z,3.53
2018-07-13T21:27:49.193Z,3.13
2018-07-13T21:30:21.083Z,5.27
2018-07-13T21:32:50.481Z,3.53
2018-07-13T21:35:19.369Z,5.33
2018-07-13T21:37:48.676Z,4.10
2018-07-13T21:40:18.693Z,5.60
2018-07-13T21:42:48.664Z,3.43
2018-07-13T21:45:21.274Z,3.73
2018-07-13T21:47:51.168Z,3.13
2018-07-13T21:50:24.168Z,3.23
2018-07-13T21:52:54.174Z,4.73
2018-07-13T21:55:27.129Z,4.50
2018-07-13T21:57:56.869Z,3.17
2018-07-13T22:00:27.516Z,4.80
2018-07-13T22:02:56.523Z,6.57
2018-07-13T22:05:29.412Z,6.27
2018-07-13T22:07:58.688Z,2.93
2018-07-13T22:10:32.236Z,9.87
2018-07-13T22:13:01.347Z,6.57
2018-07-13T22:15:34.932Z,2.90
2018-07-13T22:18:04.045Z,3.07
2018-07-13T22:20:36.944Z,3.30
2018-07-13T22:23:05.843Z,5.07
2018-07-13T22:25:42.628Z,5.63
2018-07-13T22:28:13.575Z,3.43
2018-07-13T22:30:42.371Z,3.20
2018-07-13T22:33:13.648Z,2.57
2018-07-13T22:35:44.612Z,6.27
2018-07-13T22:38:14.188Z,3.90
2018-07-13T22:40:53.043Z,4.67
2018-07-13T22:43:22.168Z,3.90
2018-07-13T22:45:51.158Z,3.93
2018-07-13T22:48:19.930Z,3.87
2018-07-13T22:50:53.382Z,7.87
2018-07-13T22:53:22.492Z,4.67
2018-07-13T22:55:56.162Z,3.13
2018-07-13T22:58:25.420Z,2.77
2018-07-13T23:01:01.760Z,3.60
2018-07-13T23:03:31.604Z,3.27
2018-07-13T23:06:02.796Z,5.27
2018-07-13T23:08:31.543Z,3.83
2018-07-13T23:11:10.907Z,5.07
2018-07-13T23:13:40.144Z,5.17
2018-07-13T23:16:09.149Z,3.13
2018-07-13T23:18:38.012Z,3.10
2018-07-13T23:21:13.672Z,3.43
2018-07-13T23:23:42.693Z,2.80
2018-07-13T23:26:14.849Z,2.93
2018-07-13T23:28:44.278Z,4.87
2018-07-13T23:31:16.213Z,3.10
2018-07-13T23:33:46.387Z,3.87
2018-07-13T23:36:24.087Z,2.23
2018-07-13T23:38:53.122Z,4.37
2018-07-13T23:41:21.960Z,3.83
2018-07-13T23:43:51.002Z,2.60
2018-07-13T23:46:27.656Z,2.73
2018-07-13T23:48:56.636Z,2.63
2018-07-13T23:51:26.238Z,3.00
2018-07-13T23:53:55.357Z,2.97
2018-07-13T23:56:28.208Z,5.67
2018-07-13T23:58:57.393Z,3.23
